createdAt,value
2019-01-11T00:02:39.920Z,99.90
2019-01-11T00:05:20.450Z,99.90
2019-01-11T00:08:09.890Z,99.90
2019-01-11T00:10:53.191Z,96.30
2019-01-11T00:13:35.298Z,95.40
2019-01-11T00:16:17.075Z,95.70
2019-01-11T00:18:59.190Z,95.90
2019-01-11T00:21:40.948Z,95.50
2019-01-11T00:24:23.048Z,95.20
2019-01-11T00:27:04.850Z,93.30
2019-01-11T00:29:47.114Z,85.00
2019-01-11T00:32:29.714Z,82.10
2019-01-11T00:35:10.162Z,73.60
2019-01-11T00:37:59.582Z,70.40
2019-01-11T00:40:43.477Z,68.40
2019-01-11T00:43:25.370Z,67.20
2019-01-11T00:46:07.121Z,65.10
2019-01-11T00:48:37.481Z,64.20
2019-01-11T00:51:21.357Z,63.70
2019-01-11T00:54:03.754Z,62.50
2019-01-11T00:56:46.074Z,62.00
2019-01-11T00:59:28.479Z,62.20
2019-01-11T01:02:10.655Z,61.50
2019-01-11T01:04:52.596Z,61.80
2019-01-11T01:07:34.602Z,61.20
2019-01-11T01:10:18.426Z,61.00
2019-01-11T01:13:00.559Z,61.70
2019-01-11T01:15:42.382Z,61.80
2019-01-11T01:18:24.314Z,61.50
2019-01-11T01:21:06.391Z,61.10
2019-01-11T01:23:48.747Z,60.60
2019-01-11T01:26:30.594Z,59.80
2019-01-11T01:29:12.490Z,59.90
2019-01-11T01:31:54.486Z,60.00
2019-01-11T01:34:36.775Z,60.00
2019-01-11T01:37:18.843Z,59.60
2019-01-11T01:40:01.148Z,60.10
2019-01-11T01:42:43.135Z,59.70
2019-01-11T01:45:23.700Z,58.80
2019-01-11T01:48:13.104Z,58.40
2019-01-11T01:50:55.414Z,58.00
2019-01-11T01:53:37.382Z,58.20
2019-01-11T01:56:19.418Z,58.80
2019-01-11T01:59:01.571Z,58.50
2019-01-11T02:01:43.443Z,58.00
2019-01-11T02:04:25.783Z,57.80
2019-01-11T02:07:10.862Z,58.10
2019-01-11T02:09:53.183Z,58.00
2019-01-11T02:12:35.006Z,58.30
2019-01-11T02:15:17.057Z,58.80
2019-01-11T02:17:59.767Z,58.50
2019-01-11T02:20:41.582Z,58.70
2019-01-11T02:23:23.146Z,58.70
2019-01-11T02:26:04.846Z,58.20
2019-01-11T02:28:46.819Z,58.30
2019-01-11T02:31:28.866Z,58.50
2019-01-11T02:34:10.814Z,58.10
2019-01-11T02:36:53.058Z,58.70
2019-01-11T02:39:34.966Z,58.20
2019-01-11T02:42:16.685Z,58.20
2019-01-11T02:44:58.650Z,58.40
2019-01-11T02:47:40.314Z,58.10
2019-01-11T02:50:21.963Z,58.20
2019-01-11T02:53:03.928Z,57.90
2019-01-11T02:55:45.746Z,58.30
2019-01-11T02:58:27.756Z,58.80
2019-01-11T03:01:09.478Z,58.40
2019-01-11T03:03:51.715Z,58.50
2019-01-11T03:06:33.702Z,58.00
2019-01-11T03:09:15.846Z,58.20
2019-01-11T03:11:57.581Z,58.80
2019-01-11T03:14:39.795Z,58.70
2019-01-11T03:17:21.582Z,58.20
2019-01-11T03:20:03.755Z,58.20
2019-01-11T03:22:45.506Z,58.60
2019-01-11T03:25:27.566Z,58.60
2019-01-11T03:28:09.739Z,58.40
2019-01-11T03:30:51.648Z,59.00
2019-01-11T03:33:33.835Z,59.70
2019-01-11T03:36:16.269Z,60.30
2019-01-11T03:38:58.518Z,59.00
2019-01-11T03:44:46.092Z,60.50
2019-01-11T03:47:27.769Z,62.40
2019-01-11T03:50:09.826Z,62.90
2019-01-11T03:52:51.747Z,62.90
2019-01-11T03:55:33.703Z,62.40
2019-01-11T03:58:04.081Z,62.90
2019-01-11T04:00:54.874Z,62.90
2019-01-11T04:03:38.148Z,60.20
2019-01-11T04:06:20.383Z,60.70
2019-01-11T04:09:02.537Z,61.30
2019-01-11T04:11:44.490Z,61.70
2019-01-11T04:14:26.874Z,62.90
2019-01-11T04:17:10.248Z,62.10
2019-01-11T04:19:52.470Z,61.60
2019-01-11T04:22:37.742Z,60.10
2019-01-11T04:25:21.413Z,60.60
2019-01-11T04:28:04.157Z,60.40
2019-01-11T04:30:46.758Z,60.30
2019-01-11T04:33:28.366Z,60.00
2019-01-11T04:36:10.553Z,60.70
2019-01-11T04:38:52.651Z,61.70
2019-01-11T04:41:34.810Z,61.40
2019-01-11T04:44:16.714Z,61.60
2019-01-11T04:46:58.678Z,61.20
2019-01-11T04:49:41.746Z,61.80
2019-01-11T04:52:23.798Z,62.00
2019-01-11T04:55:07.224Z,62.90
2019-01-11T04:57:49.078Z,62.30
2019-01-11T05:00:30.993Z,62.70
2019-01-11T05:03:13.031Z,63.60
2019-01-11T05:05:54.670Z,65.00
2019-01-11T05:08:36.642Z,66.10
2019-01-11T05:11:18.471Z,69.30
2019-01-11T05:14:00.430Z,68.60
2019-01-11T05:16:42.102Z,70.60
2019-01-11T05:19:24.466Z,71.90
2019-01-11T05:22:06.747Z,72.20
2019-01-11T05:24:48.616Z,74.60
2019-01-11T05:27:30.523Z,75.90
2019-01-11T05:30:00.901Z,76.40
2019-01-11T05:32:51.762Z,77.60
2019-01-11T05:35:35.622Z,79.70
2019-01-11T05:38:17.402Z,81.70
2019-01-11T05:40:59.283Z,82.80
2019-01-11T05:43:41.486Z,82.60
2019-01-11T05:46:23.355Z,84.30
2019-01-11T05:49:05.418Z,86.20
2019-01-11T05:51:47.246Z,88.10
2019-01-11T05:54:29.545Z,90.30
2019-01-11T05:57:11.564Z,90.00
2019-01-11T05:59:53.616Z,90.50
2019-01-11T06:02:35.626Z,91.30
2019-01-11T06:05:17.334Z,92.10
2019-01-11T06:08:04.733Z,93.00
2019-01-11T06:10:36.482Z,93.20
2019-01-11T06:13:25.911Z,92.00
2019-01-11T06:16:09.755Z,91.70
2019-01-11T06:18:51.723Z,91.10
2019-01-11T06:21:33.607Z,92.10
2019-01-11T06:24:03.898Z,91.90
2019-01-11T06:26:54.686Z,92.30
2019-01-11T06:29:39.015Z,92.80
2019-01-11T06:32:21.265Z,93.30
2019-01-11T06:35:03.081Z,93.70
2019-01-11T06:37:45.306Z,93.90
2019-01-11T06:40:26.993Z,94.60
2019-01-11T06:43:08.650Z,94.60
2019-01-11T06:45:50.322Z,94.30
2019-01-11T06:51:47.026Z,95.40
2019-01-11T06:54:29.202Z,95.20
2019-01-11T06:57:11.378Z,95.10
2019-01-11T06:59:53.551Z,94.80
2019-01-11T07:02:35.746Z,95.50
2019-01-11T07:05:17.550Z,96.00
2019-01-11T07:07:59.665Z,96.50
2019-01-11T07:10:41.274Z,96.70
2019-01-11T07:13:23.593Z,95.90
2019-01-11T07:16:05.302Z,94.40
2019-01-11T07:18:46.096Z,92.90
2019-01-11T07:21:35.450Z,91.70
2019-01-11T07:24:18.666Z,90.80
2019-01-11T07:27:01.122Z,90.10
2019-01-11T07:29:42.892Z,88.70
2019-01-11T07:32:25.129Z,87.90
2019-01-11T07:35:07.479Z,85.70
2019-01-11T07:37:49.986Z,83.90
2019-01-11T07:40:32.151Z,81.70
2019-01-11T07:43:14.025Z,78.20
2019-01-11T07:45:55.906Z,77.50
2019-01-11T07:48:37.963Z,78.20
2019-01-11T07:51:19.753Z,77.90
2019-01-11T07:54:02.487Z,77.10
2019-01-11T07:56:44.386Z,77.00
2019-01-11T07:59:26.225Z,77.80
2019-01-11T08:02:08.285Z,76.00
2019-01-11T08:04:50.005Z,75.40
2019-01-11T08:07:31.664Z,70.40
2019-01-11T08:10:13.890Z,69.80
2019-01-11T08:12:56.098Z,68.60
2019-01-11T08:15:37.735Z,67.70
2019-01-11T08:18:19.543Z,69.40
2019-01-11T08:21:01.686Z,71.00
2019-01-11T08:23:43.578Z,68.50
2019-01-11T08:26:25.354Z,68.70
2019-01-11T08:28:55.717Z,67.40
2019-01-11T08:31:46.517Z,66.70
2019-01-11T08:34:30.486Z,67.10
2019-01-11T08:37:13.650Z,66.90
2019-01-11T08:39:55.898Z,67.30
2019-01-11T08:42:37.789Z,65.10
2019-01-11T08:45:19.738Z,65.20
2019-01-11T08:48:02.249Z,75.10
2019-01-11T08:50:44.334Z,67.60
2019-01-11T08:53:26.889Z,66.90
2019-01-11T08:56:09.071Z,66.10
2019-01-11T08:58:51.434Z,62.50
2019-01-11T09:01:33.520Z,62.10
2019-01-11T09:04:15.426Z,59.50
2019-01-11T09:06:57.499Z,59.70
2019-01-11T09:09:40.267Z,58.10
2019-01-11T09:12:20.695Z,57.60
2019-01-11T09:14:52.616Z,55.80
2019-01-11T09:17:41.954Z,53.60
2019-01-11T09:20:13.665Z,51.90
2019-01-11T09:26:09.790Z,51.30
2019-01-11T09:28:51.430Z,50.20
2019-01-11T09:31:33.454Z,50.70
2019-01-11T09:34:15.658Z,49.40
2019-01-11T09:36:57.458Z,49.80
2019-01-11T09:39:39.187Z,49.10
2019-01-11T09:42:20.846Z,49.20
2019-01-11T09:45:03.078Z,50.70
2019-01-11T09:47:44.992Z,51.10
2019-01-11T09:50:27.270Z,50.30
2019-01-11T09:53:09.018Z,49.00
2019-01-11T09:55:51.290Z,48.50
2019-01-11T09:58:33.271Z,48.20
2019-01-11T10:01:16.328Z,48.10
2019-01-11T10:03:58.330Z,47.80
2019-01-11T10:06:46.520Z,48.40
2019-01-11T10:09:30.235Z,48.80
2019-01-11T10:12:12.205Z,49.90
2019-01-11T10:14:53.942Z,50.20
2019-01-11T10:17:36.000Z,50.60
2019-01-11T10:20:18.013Z,51.50
2019-01-11T10:23:00.546Z,51.80
2019-01-11T10:25:42.358Z,50.40
2019-01-11T10:28:24.271Z,50.40
2019-01-11T10:31:04.746Z,50.50
2019-01-11T10:33:54.066Z,50.20
2019-01-11T10:36:38.041Z,48.90
2019-01-11T10:39:20.630Z,48.80
2019-01-11T10:42:02.960Z,49.00
2019-01-11T10:44:44.981Z,48.70
2019-01-11T10:47:27.049Z,49.20
2019-01-11T10:50:09.014Z,48.30
2019-01-11T10:52:51.198Z,49.10
2019-01-11T10:55:33.422Z,48.40
2019-01-11T10:58:15.236Z,48.50
2019-01-11T11:00:57.163Z,48.90
2019-01-11T11:03:38.938Z,48.10
2019-01-11T11:06:21.394Z,48.90
2019-01-11T11:09:04.454Z,48.00
2019-01-11T11:11:46.550Z,46.70
2019-01-11T11:14:28.748Z,46.90
2019-01-11T11:17:11.303Z,48.00
2019-01-11T11:19:53.274Z,48.10
2019-01-11T11:22:35.245Z,47.00
2019-01-11T11:25:17.768Z,47.30
2019-01-11T11:27:59.934Z,47.20
2019-01-11T11:30:42.298Z,47.70
2019-01-11T11:33:24.128Z,48.00
2019-01-11T11:36:04.679Z,47.80
2019-01-11T11:38:54.074Z,47.90
2019-01-11T11:41:37.822Z,47.70
2019-01-11T11:44:19.678Z,46.90
2019-01-11T11:47:01.345Z,47.60
2019-01-11T11:49:43.140Z,48.00
2019-01-11T11:52:24.994Z,48.20
2019-01-11T11:55:06.651Z,47.90
2019-01-11T11:57:48.783Z,48.90
2019-01-11T12:00:30.654Z,49.10
2019-01-11T12:03:13.036Z,49.30
2019-01-11T12:05:55.110Z,49.60
2019-01-11T12:08:36.885Z,48.30
2019-01-11T12:11:19.331Z,48.20
2019-01-11T12:14:02.342Z,48.40
2019-01-11T12:16:43.882Z,47.20
2019-01-11T12:19:25.753Z,47.10
2019-01-11T12:22:07.791Z,47.30
2019-01-11T12:24:49.700Z,47.40
2019-01-11T12:27:31.982Z,47.60
2019-01-11T12:30:13.569Z,48.50
2019-01-11T12:32:55.970Z,47.10
2019-01-11T12:35:37.978Z,47.10
2019-01-11T12:38:19.566Z,47.30
2019-01-11T12:41:01.367Z,47.50
2019-01-11T12:43:43.614Z,47.40
2019-01-11T12:46:25.290Z,47.20
2019-01-11T12:49:07.022Z,47.30
2019-01-11T12:51:53.957Z,47.10
2019-01-11T12:54:33.018Z,47.20
2019-01-11T12:57:14.618Z,48.10
2019-01-11T12:59:56.460Z,48.40
2019-01-11T13:02:38.584Z,47.70
2019-01-11T13:05:20.534Z,47.40
2019-01-11T13:08:03.202Z,47.30
2019-01-11T13:10:44.930Z,46.90
2019-01-11T13:13:26.899Z,47.50
2019-01-11T13:16:08.563Z,48.00
2019-01-11T13:18:50.170Z,48.10
2019-01-11T13:21:32.030Z,49.00
2019-01-11T13:24:14.231Z,49.90
2019-01-11T13:26:56.030Z,49.80
2019-01-11T13:29:38.247Z,50.00
2019-01-11T13:38:17.604Z,50.20
2019-01-11T13:41:06.943Z,50.90
2019-01-11T13:43:50.381Z,51.10
2019-01-11T13:46:32.666Z,51.50
2019-01-11T13:49:14.786Z,51.40
2019-01-11T13:51:56.518Z,51.90
2019-01-11T13:54:38.810Z,52.30
2019-01-11T13:57:20.626Z,52.50
2019-01-11T14:00:03.859Z,52.50
2019-01-11T14:02:46.404Z,53.00
2019-01-11T14:05:28.547Z,53.40
2019-01-11T14:08:10.929Z,53.50
2019-01-11T14:10:53.166Z,53.80
2019-01-11T14:13:34.809Z,53.40
2019-01-11T14:16:16.746Z,53.50
2019-01-11T14:18:58.818Z,53.00
2019-01-11T14:21:41.205Z,56.20
2019-01-11T14:24:21.753Z,54.70
2019-01-11T14:27:11.402Z,53.80
2019-01-11T14:29:54.905Z,53.90
2019-01-11T14:32:37.170Z,54.70
2019-01-11T14:35:18.879Z,53.80
2019-01-11T14:38:01.296Z,53.70
2019-01-11T14:40:43.458Z,54.20
2019-01-11T14:43:25.171Z,54.60
2019-01-11T14:46:07.650Z,55.10
2019-01-11T14:48:49.581Z,55.60
2019-01-11T14:51:31.767Z,55.70
2019-01-11T14:54:13.946Z,55.80
2019-01-11T14:56:55.634Z,56.30
2019-01-11T14:59:37.543Z,56.20
2019-01-11T15:02:19.166Z,56.60
2019-01-11T15:05:01.343Z,56.50
2019-01-11T15:07:43.146Z,56.40
2019-01-11T15:10:25.460Z,56.10
2019-01-11T15:13:07.194Z,56.60
2019-01-11T15:15:49.342Z,57.90
2019-01-11T15:18:31.272Z,56.70
2019-01-11T15:21:13.138Z,56.90
2019-01-11T15:23:55.295Z,57.40
2019-01-11T15:26:37.546Z,57.40
2019-01-11T15:29:19.813Z,57.30
2019-01-11T15:32:01.987Z,57.50
2019-01-11T15:34:43.818Z,57.60
2019-01-11T15:37:26.026Z,57.60
2019-01-11T15:40:07.906Z,57.50
2019-01-11T15:42:49.662Z,57.50
2019-01-11T15:45:31.498Z,57.70
2019-01-11T15:48:13.173Z,57.80
2019-01-11T15:50:54.840Z,57.70
2019-01-11T15:53:36.721Z,58.10
2019-01-11T15:56:19.778Z,58.50
2019-01-11T15:59:01.686Z,58.90
2019-01-11T16:01:43.865Z,59.40
2019-01-11T16:04:25.502Z,60.00
2019-01-11T16:07:07.295Z,60.40
2019-01-11T16:10:08.398Z,60.20
2019-01-11T16:12:50.208Z,59.70
2019-01-11T16:15:32.067Z,59.90
2019-01-11T16:18:14.178Z,60.00
2019-01-11T16:20:56.274Z,60.10
2019-01-11T16:23:38.114Z,60.90
2019-01-11T16:26:19.755Z,60.00
2019-01-11T16:29:02.072Z,59.70
2019-01-11T16:31:43.885Z,60.10
2019-01-11T16:34:26.087Z,60.00
2019-01-11T16:37:08.716Z,60.70
2019-01-11T16:39:51.058Z,61.30
2019-01-11T16:42:38.570Z,61.50
2019-01-11T16:45:16.694Z,61.70
2019-01-11T16:47:58.371Z,62.40
2019-01-11T16:50:40.070Z,62.80
2019-01-11T16:53:22.109Z,63.10
2019-01-11T16:56:04.138Z,63.40
2019-01-11T16:58:46.362Z,63.30
2019-01-11T17:01:28.070Z,63.70
2019-01-11T17:04:10.238Z,63.60
2019-01-11T17:06:52.565Z,64.00
2019-01-11T17:09:34.375Z,64.30
2019-01-11T17:12:16.692Z,64.40
2019-01-11T17:14:58.446Z,64.50
2019-01-11T17:17:40.235Z,65.00
2019-01-11T17:20:22.477Z,65.30
2019-01-11T17:23:04.596Z,66.40
2019-01-11T17:25:46.503Z,67.90
2019-01-11T17:28:29.217Z,68.50
2019-01-11T17:31:11.574Z,70.40
2019-01-11T17:33:53.334Z,72.50
2019-01-11T17:36:35.723Z,73.30
2019-01-11T17:39:17.338Z,74.30
2019-01-11T17:41:59.760Z,74.40
2019-01-11T17:44:42.182Z,75.60
2019-01-11T17:47:24.233Z,76.60
2019-01-11T17:50:06.341Z,76.90
2019-01-11T17:52:48.406Z,77.30
2019-01-11T17:55:30.350Z,78.30
2019-01-11T17:58:12.228Z,77.40
2019-01-11T18:00:53.986Z,77.70
2019-01-11T18:03:35.786Z,79.00
2019-01-11T18:06:17.660Z,79.30
2019-01-11T18:08:59.587Z,79.10
2019-01-11T18:11:41.907Z,78.60
2019-01-11T18:14:23.682Z,77.20
2019-01-11T18:17:06.238Z,77.40
2019-01-11T18:19:48.231Z,78.00
2019-01-11T18:22:28.862Z,78.20
2019-01-11T18:25:18.351Z,85.30
2019-01-11T18:28:02.174Z,88.20
2019-01-11T18:30:44.409Z,91.60
2019-01-11T18:33:26.222Z,92.20
2019-01-11T18:36:08.534Z,95.80
2019-01-11T18:38:50.238Z,95.00
2019-01-11T18:41:32.496Z,84.20
2019-01-11T18:44:14.449Z,83.60
2019-01-11T18:46:56.447Z,84.80
2019-01-11T18:49:38.253Z,78.70
2019-01-11T18:52:20.311Z,80.10
2019-01-11T18:55:03.410Z,83.90
2019-01-11T18:57:45.713Z,82.70
2019-01-11T19:00:27.692Z,81.50
2019-01-11T19:03:09.671Z,83.40
2019-01-11T19:05:52.046Z,79.50
2019-01-11T19:08:33.884Z,80.60
2019-01-11T19:11:16.006Z,85.20
2019-01-11T19:13:57.818Z,84.60
2019-01-11T19:16:39.706Z,83.60
2019-01-11T19:19:21.874Z,83.40
2019-01-11T19:22:03.664Z,83.80
2019-01-11T19:24:45.986Z,83.40
2019-01-11T19:27:28.257Z,83.40
2019-01-11T19:30:13.731Z,83.70
2019-01-11T19:33:03.142Z,84.00
2019-01-11T19:35:46.236Z,83.50
2019-01-11T19:38:28.123Z,83.10
2019-01-11T19:41:10.080Z,83.20
2019-01-11T19:43:51.911Z,83.30
2019-01-11T19:46:34.089Z,83.10
2019-01-11T19:49:16.246Z,83.50
2019-01-11T19:51:58.342Z,84.10
2019-01-11T19:54:40.422Z,83.50
2019-01-11T19:57:22.674Z,82.00
2019-01-11T20:00:07.115Z,81.30
2019-01-11T20:02:50.732Z,80.90
2019-01-11T20:05:33.281Z,80.90
2019-01-11T20:08:16.678Z,83.60
2019-01-11T20:10:58.768Z,86.40
2019-01-11T20:13:40.864Z,85.60
2019-01-11T20:16:22.653Z,85.00
2019-01-11T20:19:04.978Z,84.60
2019-01-11T20:21:47.242Z,84.40
2019-01-11T20:24:29.505Z,84.10
2019-01-11T20:27:11.230Z,83.40
2019-01-11T20:29:53.742Z,84.70
2019-01-11T20:32:35.598Z,85.00
2019-01-11T20:35:18.270Z,85.30
2019-01-11T20:38:00.054Z,84.00
2019-01-11T20:40:42.262Z,84.10
2019-01-11T20:43:24.798Z,83.20
2019-01-11T20:46:06.670Z,83.70
2019-01-11T20:48:49.190Z,83.70
2019-01-11T20:51:31.346Z,81.30
2019-01-11T20:54:13.662Z,80.10
2019-01-11T20:56:56.008Z,81.10
2019-01-11T20:59:37.934Z,82.00
2019-01-11T21:02:20.334Z,81.00
2019-01-11T21:05:02.449Z,80.00
2019-01-11T21:07:44.482Z,79.40
2019-01-11T21:10:26.760Z,79.90
2019-01-11T21:13:08.292Z,78.60
2019-01-11T21:15:50.321Z,77.40
2019-01-11T21:18:32.241Z,77.80
2019-01-11T21:21:14.388Z,78.90
2019-01-11T21:23:56.475Z,80.20
2019-01-11T21:26:38.441Z,81.60
2019-01-11T21:29:20.518Z,81.30
2019-01-11T21:32:02.346Z,80.40
2019-01-11T21:34:45.172Z,82.30
2019-01-11T21:37:28.388Z,83.40
2019-01-11T21:40:10.887Z,87.20
2019-01-11T21:42:53.830Z,84.20
2019-01-11T21:45:37.011Z,84.30
2019-01-11T21:48:19.567Z,84.10
2019-01-11T21:51:01.750Z,84.70
2019-01-11T21:53:43.534Z,84.30
2019-01-11T21:56:25.477Z,83.70
2019-01-11T21:59:07.399Z,83.60
2019-01-11T22:01:49.523Z,83.70
2019-01-11T22:04:31.983Z,83.60
2019-01-11T22:07:13.790Z,82.90
2019-01-11T22:09:56.158Z,83.60
2019-01-11T22:12:37.932Z,83.80
2019-01-11T22:15:20.248Z,85.90
2019-01-11T22:18:02.059Z,87.00
2019-01-11T22:20:47.198Z,87.50
2019-01-11T22:23:29.167Z,88.30
2019-01-11T22:26:10.796Z,88.20
2019-01-11T22:28:52.758Z,89.10
2019-01-11T22:31:34.395Z,86.20
2019-01-11T22:34:16.473Z,83.80
2019-01-11T22:36:58.570Z,83.80
2019-01-11T22:39:40.774Z,84.40
2019-01-11T22:42:22.523Z,85.20
2019-01-11T22:45:04.596Z,83.00
2019-01-11T22:47:46.334Z,83.80
2019-01-11T22:50:28.415Z,84.00
2019-01-11T22:53:10.712Z,84.20
2019-01-11T22:55:52.491Z,84.80
2019-01-11T22:58:34.915Z,83.80
2019-01-11T23:01:17.338Z,83.80
2019-01-11T23:03:59.507Z,83.50
2019-01-11T23:06:41.608Z,83.40
2019-01-11T23:09:24.314Z,82.60
2019-01-11T23:12:06.657Z,82.00
2019-01-11T23:14:36.984Z,82.10
2019-01-11T23:17:46.910Z,84.90
2019-01-11T23:20:30.889Z,98.90
2019-01-11T23:23:12.803Z,95.10
2019-01-11T23:25:54.493Z,79.60
2019-01-11T23:28:36.181Z,79.50
2019-01-11T23:31:17.999Z,82.50
2019-01-11T23:33:59.582Z,81.80
2019-01-11T23:36:41.370Z,83.30
2019-01-11T23:39:23.050Z,82.60
2019-01-11T23:42:04.954Z,83.70
2019-01-11T23:44:47.183Z,85.20
2019-01-11T23:47:29.179Z,86.20
2019-01-11T23:50:11.354Z,85.30
2019-01-11T23:52:53.078Z,81.10
2019-01-11T23:55:35.563Z,78.90
2019-01-11T23:58:17.508Z,81.00
